Time;durP1;ratioP1;P1;durP2;ratioP2;P2;SDS_P1;SDS_P2;PMS_P1;PMS_P2;Temp;Humidity;BMP_temperature;BMP_pressure;BME280_temperature;BME280_humidity;BME280_pressure;Samples;Min_cycle;Max_cycle;Signal;HPM_P1;HPM_P2
2022/01/05 00:00:13;;;;;;;0.00;0.00;;;4.80;99.90;;;;;;5111899;27;20195;-52
2022/01/05 00:02:58;;;;;;;0.20;0.10;;;4.70;99.90;;;;;;5118719;27;20246;-64
2022/01/05 00:05:43;;;;;;;0.03;0.03;;;4.60;99.90;;;;;;5104422;27;20200;-62
2022/01/05 00:08:29;;;;;;;0.10;0.00;;;4.70;99.90;;;;;;5096860;28;20204;-61
2022/01/05 00:11:16;;;;;;;0.10;0.10;;;4.60;99.90;;;;;;5108548;28;20196;-56
2022/01/05 00:14:01;;;;;;;0.00;0.00;;;4.50;99.90;;;;;;5105349;28;20208;-53
2022/01/05 00:16:46;;;;;;;0.10;0.10;;;4.40;99.90;;;;;;5106830;28;20191;-53
2022/01/05 00:19:34;;;;;;;0.20;0.10;;;4.50;99.90;;;;;;5109315;27;20199;-60
2022/01/05 00:22:18;;;;;;;0.30;0.10;;;4.60;99.90;;;;;;5128651;27;20196;-64
2022/01/05 00:25:04;;;;;;;0.10;0.10;;;4.50;99.90;;;;;;5094522;27;20246;-55
2022/01/05 00:27:49;;;;;;;0.20;0.20;;;4.40;99.90;;;;;;5094389;27;20284;-56
2022/01/05 00:30:34;;;;;;;0.10;0.10;;;4.30;99.90;;;;;;5083310;28;20219;-56
2022/01/05 00:33:18;;;;;;;0.17;0.17;;;4.40;99.90;;;;;;5087762;27;20232;-62
2022/01/05 00:36:04;;;;;;;0.27;0.10;;;4.30;99.90;;;;;;5125311;27;20204;-60
2022/01/05 00:38:49;;;;;;;0.20;0.20;;;4.30;99.90;;;;;;5125239;27;20282;-62
2022/01/05 00:41:35;;;;;;;0.20;0.20;;;4.30;99.90;;;;;;5128340;27;20191;-63
2022/01/05 00:44:20;;;;;;;0.20;0.20;;;4.10;99.90;;;;;;5125794;27;20195;-60
2022/01/05 00:47:04;;;;;;;0.27;0.27;;;4.10;99.90;;;;;;5127001;27;20245;-58
2022/01/05 00:49:49;;;;;;;0.93;0.20;;;4.20;99.90;;;;;;5127880;27;20249;-61
2022/01/05 00:52:33;;;;;;;0.37;0.30;;;4.20;99.90;;;;;;5124273;27;20230;-58
2022/01/05 00:55:18;;;;;;;0.13;0.13;;;4.30;99.90;;;;;;5118584;27;20246;-60
2022/01/05 00:58:03;;;;;;;0.00;0.00;;;4.00;99.90;;;;;;5099411;28;20211;-63
2022/01/05 01:00:47;;;;;;;0.00;0.00;;;4.10;99.90;;;;;;5103967;28;20199;-63
2022/01/05 01:03:33;;;;;;;0.00;0.00;;;4.00;99.90;;;;;;5098432;28;20212;-62
2022/01/05 01:06:18;;;;;;;0.00;0.00;;;3.90;99.90;;;;;;5098137;28;20268;-64
2022/01/05 01:09:03;;;;;;;0.10;0.10;;;4.00;99.90;;;;;;5096450;28;20224;-62
2022/01/05 01:11:49;;;;;;;0.20;0.20;;;3.90;99.90;;;;;;5087127;28;20220;-62
2022/01/05 01:14:34;;;;;;;0.20;0.20;;;3.80;99.90;;;;;;5084487;28;20232;-64
2022/01/05 01:17:18;;;;;;;0.30;0.30;;;3.80;99.90;;;;;;5086498;28;20192;-62
2022/01/05 01:20:04;;;;;;;0.00;0.00;;;3.90;99.90;;;;;;5103510;28;20242;-62
2022/01/05 01:22:50;;;;;;;0.07;0.07;;;3.90;99.90;;;;;;5102961;28;20347;-63
2022/01/05 01:25:34;;;;;;;0.00;0.00;;;3.80;99.90;;;;;;5106987;28;20195;-64
2022/01/05 01:28:19;;;;;;;0.00;0.00;;;3.90;99.90;;;;;;5097408;28;20236;-64
2022/01/05 01:31:04;;;;;;;0.00;0.00;;;4.00;99.90;;;;;;5083644;28;20196;-63
2022/01/05 01:33:48;;;;;;;0.00;0.00;;;3.90;99.90;;;;;;5086696;28;20270;-64
2022/01/05 01:36:33;;;;;;;0.00;0.00;;;3.90;99.90;;;;;;5085767;28;20262;-65
2022/01/05 01:39:17;;;;;;;0.00;0.00;;;4.10;99.90;;;;;;5133794;27;20238;-63
2022/01/05 01:42:01;;;;;;;0.10;0.10;;;3.90;99.90;;;;;;5136488;27;20216;-63
2022/01/05 01:44:46;;;;;;;0.20;0.13;;;3.90;99.90;;;;;;5132843;27;20200;-64
2022/01/05 01:47:30;;;;;;;0.33;0.07;;;3.90;99.90;;;;;;5128048;27;20245;-63
2022/01/05 01:50:15;;;;;;;0.30;0.13;;;3.80;99.90;;;;;;5106753;28;20249;-64
2022/01/05 01:53:00;;;;;;;0.13;0.13;;;3.80;99.90;;;;;;5095283;28;20251;-63
2022/01/05 01:55:48;;;;;;;0.10;0.10;;;3.70;99.90;;;;;;5106721;28;20192;-65
2022/01/05 01:58:34;;;;;;;0.30;0.30;;;3.70;99.90;;;;;;5101032;28;20192;-64
2022/01/05 02:01:19;;;;;;;0.20;0.20;;;3.70;99.90;;;;;;5101364;28;20218;-64
2022/01/05 02:04:03;;;;;;;0.23;0.10;;;3.70;99.90;;;;;;5105408;28;20192;-63
2022/01/05 02:06:51;;;;;;;0.20;0.20;;;3.70;99.90;;;;;;5115257;28;20218;-63
2022/01/05 02:09:37;;;;;;;0.20;0.20;;;3.70;99.90;;;;;;5112471;28;20199;-64
2022/01/05 02:12:26;;;;;;;0.17;0.17;;;3.70;99.90;;;;;;5116348;28;20259;-63
2022/01/05 02:15:11;;;;;;;0.23;0.23;;;3.60;99.90;;;;;;5110456;27;20260;-62
2022/01/05 02:20:47;;;;;;;0.47;0.47;;;3.60;99.90;;;;;;5117901;28;20339;-63
2022/01/05 02:23:32;;;;;;;0.30;0.30;;;3.50;99.90;;;;;;5090734;28;20192;-62
2022/01/05 02:26:17;;;;;;;0.40;0.40;;;3.70;99.90;;;;;;5095263;28;20187;-63
2022/01/05 02:29:04;;;;;;;0.37;0.37;;;3.70;99.90;;;;;;5095688;28;20196;-64
2022/01/05 02:31:48;;;;;;;2.27;1.60;;;3.50;99.90;;;;;;5092237;28;20223;-63
2022/01/05 02:34:33;;;;;;;1.20;1.10;;;3.50;99.90;;;;;;5095859;28;20270;-63
2022/01/05 02:37:17;;;;;;;0.73;0.50;;;3.50;99.90;;;;;;5123092;27;20913;-64
2022/01/05 02:40:01;;;;;;;0.30;0.30;;;3.60;99.90;;;;;;5093426;28;20270;-64
2022/01/05 02:42:46;;;;;;;0.77;0.77;;;3.50;99.90;;;;;;5092619;28;20294;-63
2022/01/05 02:45:32;;;;;;;0.57;0.57;;;3.50;99.90;;;;;;5095678;28;20189;-63
2022/01/05 02:48:17;;;;;;;0.50;0.50;;;3.60;99.90;;;;;;5094487;28;20192;-64
2022/01/05 02:51:05;;;;;;;0.73;0.53;;;3.60;99.90;;;;;;5098537;28;20224;-62
2022/01/05 02:53:49;;;;;;;0.50;0.50;;;3.60;99.90;;;;;;5092304;28;20243;-63
2022/01/05 02:56:34;;;;;;;0.70;0.70;;;3.60;99.90;;;;;;5095074;28;20265;-63
2022/01/05 02:59:18;;;;;;;0.80;0.80;;;3.50;99.90;;;;;;5099485;28;20239;-62
2022/01/05 03:02:02;;;;;;;0.57;0.57;;;3.50;99.90;;;;;;5106343;28;20204;-63
2022/01/05 03:04:47;;;;;;;2.10;0.30;;;3.60;99.90;;;;;;5108726;28;20196;-62
2022/01/05 03:07:37;;;;;;;0.50;0.50;;;3.60;99.90;;;;;;5107345;28;20199;-63
2022/01/05 03:10:22;;;;;;;0.57;0.57;;;3.60;99.90;;;;;;5106374;28;20207;-63
2022/01/05 03:13:07;;;;;;;0.43;0.43;;;3.60;99.90;;;;;;5108826;28;20400;-62
2022/01/05 03:15:52;;;;;;;0.70;0.70;;;3.70;99.90;;;;;;5106423;28;20192;-63
2022/01/05 03:18:36;;;;;;;0.27;0.20;;;3.70;99.90;;;;;;5108028;28;20275;-63
2022/01/05 03:21:20;;;;;;;0.47;0.47;;;3.60;99.90;;;;;;5109247;28;20192;-63
2022/01/05 03:24:05;;;;;;;0.63;0.60;;;3.60;99.90;;;;;;5105209;28;20203;-62
2022/01/05 03:26:49;;;;;;;0.30;0.30;;;3.60;99.90;;;;;;5108435;28;20215;-62
2022/01/05 03:29:33;;;;;;;0.40;0.40;;;3.70;99.90;;;;;;5107816;28;20208;-63
2022/01/05 03:32:19;;;;;;;0.20;0.20;;;3.70;99.90;;;;;;5105491;28;20279;-63
2022/01/05 03:35:05;;;;;;;0.33;0.33;;;3.70;99.90;;;;;;5108531;28;20215;-62
2022/01/05 03:37:50;;;;;;;3.03;0.70;;;3.70;99.90;;;;;;5106239;28;20319;-63
2022/01/05 03:40:35;;;;;;;0.70;0.70;;;3.70;99.90;;;;;;5106180;28;20192;-63
2022/01/05 03:43:19;;;;;;;0.90;0.90;;;3.70;99.90;;;;;;5108245;28;20316;-63
2022/01/05 03:46:05;;;;;;;0.57;0.57;;;3.70;99.90;;;;;;5105533;28;20242;-63
2022/01/05 03:48:51;;;;;;;0.23;0.23;;;3.80;99.90;;;;;;5106846;28;20236;-63
2022/01/05 03:51:36;;;;;;;0.70;0.70;;;3.80;99.90;;;;;;5107946;28;20664;-65
2022/01/05 03:54:20;;;;;;;0.87;0.87;;;3.80;99.90;;;;;;5101733;28;20187;-63
2022/01/05 03:57:05;;;;;;;1.30;0.60;;;3.80;99.90;;;;;;5087063;28;20228;-62
2022/01/05 03:59:50;;;;;;;0.40;0.40;;;3.90;99.90;;;;;;5084762;28;20281;-65
2022/01/05 04:02:35;;;;;;;0.17;0.17;;;3.90;99.90;;;;;;5083278;28;20185;-63
2022/01/05 04:05:19;;;;;;;0.40;0.40;;;3.90;99.90;;;;;;5086764;28;20200;-64
2022/01/05 04:08:04;;;;;;;0.50;0.50;;;4.00;99.90;;;;;;5084867;28;20195;-63
2022/01/05 04:10:48;;;;;;;0.40;0.40;;;4.00;99.90;;;;;;5084560;28;20322;-63
2022/01/05 04:13:33;;;;;;;0.50;0.50;;;4.00;99.90;;;;;;5086957;28;20209;-63
2022/01/05 04:16:18;;;;;;;0.60;0.60;;;4.00;99.90;;;;;;5084486;28;20192;-62
2022/01/05 04:19:02;;;;;;;0.30;0.30;;;4.10;99.90;;;;;;5086485;28;20199;-63
2022/01/05 04:21:46;;;;;;;0.20;0.20;;;4.00;99.90;;;;;;5086806;28;20208;-65
2022/01/05 04:24:32;;;;;;;0.60;0.60;;;4.10;99.90;;;;;;5083358;28;20188;-62
2022/01/05 04:27:18;;;;;;;0.50;0.50;;;4.10;99.90;;;;;;5086851;28;20196;-63
2022/01/05 04:30:04;;;;;;;0.20;0.20;;;4.10;99.90;;;;;;5086274;28;20201;-64
2022/01/05 04:32:48;;;;;;;0.40;0.40;;;4.10;99.90;;;;;;5083668;28;20244;-61
2022/01/05 04:35:32;;;;;;;0.30;0.30;;;4.20;99.90;;;;;;5087225;28;20213;-64
2022/01/05 04:38:17;;;;;;;0.40;0.40;;;4.20;99.90;;;;;;5084874;28;20231;-62
2022/01/05 04:41:01;;;;;;;0.43;0.43;;;4.20;99.90;;;;;;5084957;28;20215;-61
2022/01/05 04:43:45;;;;;;;0.30;0.30;;;4.20;99.90;;;;;;5086711;28;20251;-62
2022/01/05 04:46:30;;;;;;;0.97;0.70;;;4.20;99.90;;;;;;5083485;28;20224;-63
2022/01/05 04:49:15;;;;;;;0.47;0.47;;;4.20;99.90;;;;;;5086262;28;20220;-61
2022/01/05 04:52:00;;;;;;;0.20;0.20;;;4.20;99.90;;;;;;5086100;28;20244;-63
2022/01/05 04:54:46;;;;;;;8.70;0.50;;;4.20;99.90;;;;;;5082622;28;20201;-62
2022/01/05 04:57:30;;;;;;;1.53;0.70;;;4.20;99.90;;;;;;5086769;28;20196;-61
2022/01/05 05:00:15;;;;;;;0.10;0.10;;;4.20;99.90;;;;;;5085652;28;20197;-61
2022/01/05 05:02:59;;;;;;;0.30;0.30;;;4.20;99.90;;;;;;5083461;28;20283;-60
2022/01/05 05:05:44;;;;;;;0.13;0.13;;;4.30;99.90;;;;;;5086641;28;20249;-62
2022/01/05 05:08:29;;;;;;;0.30;0.30;;;4.30;99.90;;;;;;5084023;28;20188;-62
2022/01/05 05:11:13;;;;;;;0.20;0.20;;;4.30;99.90;;;;;;5084340;28;20193;-61
2022/01/05 05:13:57;;;;;;;0.50;0.30;;;4.30;99.90;;;;;;5086288;28;20200;-61
2022/01/05 05:16:42;;;;;;;0.37;0.37;;;4.40;99.90;;;;;;5083395;28;20255;-62
2022/01/05 05:19:26;;;;;;;0.13;0.10;;;4.40;99.90;;;;;;5085810;28;20189;-63
2022/01/05 05:22:10;;;;;;;0.43;0.40;;;4.40;99.90;;;;;;5084985;28;20223;-64
2022/01/05 05:24:55;;;;;;;0.20;0.20;;;4.40;99.90;;;;;;5082708;28;20246;-63
2022/01/05 05:27:39;;;;;;;0.20;0.20;;;4.40;99.90;;;;;;5086571;28;20289;-64
2022/01/05 05:30:23;;;;;;;0.20;0.20;;;4.40;99.90;;;;;;5084609;28;20196;-64
2022/01/05 05:33:08;;;;;;;0.60;0.47;;;4.40;99.90;;;;;;5083633;28;20224;-62
2022/01/05 05:35:52;;;;;;;0.30;0.30;;;4.40;99.90;;;;;;5086084;28;20197;-61
2022/01/05 05:38:38;;;;;;;0.23;0.23;;;4.40;99.90;;;;;;5082638;28;20204;-63
2022/01/05 05:41:22;;;;;;;0.30;0.30;;;4.40;99.90;;;;;;5084995;28;20277;-61
2022/01/05 05:44:06;;;;;;;0.30;0.30;;;4.40;99.90;;;;;;5085818;28;20225;-61
2022/01/05 05:46:50;;;;;;;0.20;0.20;;;4.40;99.90;;;;;;5083290;28;20237;-62
2022/01/05 05:49:35;;;;;;;0.20;0.20;;;4.40;99.90;;;;;;5086020;28;20192;-61
2022/01/05 05:52:20;;;;;;;0.20;0.20;;;4.50;99.90;;;;;;5085318;28;20274;-62
2022/01/05 05:55:04;;;;;;;0.30;0.30;;;4.40;99.90;;;;;;5083123;28;20249;-60
2022/01/05 05:57:49;;;;;;;0.13;0.13;;;4.50;99.90;;;;;;5086366;28;20193;-61
2022/01/05 06:00:33;;;;;;;0.10;0.10;;;4.50;99.90;;;;;;5083126;28;20247;-61
2022/01/05 06:03:18;;;;;;;0.20;0.20;;;4.40;99.90;;;;;;5083710;28;20243;-57
2022/01/05 06:06:02;;;;;;;0.10;0.10;;;4.40;99.90;;;;;;5085469;28;20326;-61
2022/01/05 06:08:46;;;;;;;0.20;0.20;;;4.40;99.90;;;;;;5082209;28;20243;-61
2022/01/05 06:11:31;;;;;;;0.33;0.30;;;4.40;99.90;;;;;;5084675;28;20196;-61
2022/01/05 06:14:16;;;;;;;0.30;0.30;;;4.40;99.90;;;;;;5085213;28;20207;-60
2022/01/05 06:17:00;;;;;;;0.27;0.27;;;4.40;99.90;;;;;;5082821;28;20318;-60
2022/01/05 06:19:46;;;;;;;0.30;0.30;;;4.40;99.90;;;;;;5085580;28;20327;-61
2022/01/05 06:22:31;;;;;;;0.10;0.10;;;4.40;99.90;;;;;;5084153;28;20193;-60
2022/01/05 06:25:15;;;;;;;0.27;0.27;;;4.40;99.90;;;;;;5082996;28;20217;-61
2022/01/05 06:28:00;;;;;;;0.40;0.40;;;4.40;99.90;;;;;;5085913;28;20196;-56
2022/01/05 06:30:46;;;;;;;0.10;0.10;;;4.40;99.90;;;;;;5082738;28;20207;-61
2022/01/05 06:33:30;;;;;;;0.20;0.20;;;4.50;99.90;;;;;;5083536;28;20314;-57
2022/01/05 06:36:14;;;;;;;0.30;0.30;;;4.50;99.90;;;;;;5089139;28;20204;-59
2022/01/05 06:39:01;;;;;;;0.30;0.10;;;4.50;99.90;;;;;;5085834;28;20196;-61
2022/01/05 06:41:46;;;;;;;0.10;0.10;;;4.50;99.90;;;;;;5089520;28;20213;-61
2022/01/05 06:44:30;;;;;;;0.30;0.30;;;4.50;99.90;;;;;;5088350;28;20259;-61
2022/01/05 06:47:15;;;;;;;0.50;0.50;;;4.50;99.90;;;;;;5086116;28;20358;-55
2022/01/05 06:49:59;;;;;;;0.10;0.10;;;4.50;99.90;;;;;;5089253;28;20208;-56
2022/01/05 06:52:43;;;;;;;0.20;0.20;;;4.50;99.90;;;;;;5086772;28;20244;-55
2022/01/05 06:55:28;;;;;;;0.30;0.30;;;4.50;99.90;;;;;;5086334;28;20197;-56
2022/01/05 06:58:13;;;;;;;0.43;0.43;;;4.50;99.90;;;;;;5088637;28;20193;-58
2022/01/05 07:00:57;;;;;;;0.10;0.10;;;4.50;99.90;;;;;;5085806;28;20196;-61
2022/01/05 07:03:41;;;;;;;0.40;0.40;;;4.50;99.90;;;;;;5087521;28;20232;-58
2022/01/05 07:06:27;;;;;;;0.33;0.33;;;4.50;99.90;;;;;;5088626;28;20357;-56
2022/01/05 07:09:12;;;;;;;0.13;0.13;;;4.50;99.90;;;;;;5085511;28;20201;-51
2022/01/05 07:11:57;;;;;;;0.30;0.30;;;4.50;99.90;;;;;;5098590;28;20307;-54
2022/01/05 07:14:41;;;;;;;0.30;0.30;;;4.50;99.90;;;;;;5110346;27;20266;-58
2022/01/05 07:17:26;;;;;;;0.20;0.20;;;4.50;99.90;;;;;;5118814;27;20276;-58
2022/01/05 07:20:13;;;;;;;0.40;0.40;;;4.60;99.90;;;;;;5120642;27;20246;-56
2022/01/05 07:22:57;;;;;;;0.30;0.30;;;4.60;99.90;;;;;;5097475;27;20242;-55
2022/01/05 07:25:42;;;;;;;0.50;0.50;;;4.60;99.90;;;;;;5094704;28;20266;-59
2022/01/05 07:28:26;;;;;;;0.60;0.60;;;4.60;99.90;;;;;;5104089;27;20229;-58
2022/01/05 07:31:11;;;;;;;0.47;0.43;;;4.60;99.90;;;;;;5108892;27;20196;-56
2022/01/05 07:33:55;;;;;;;0.40;0.40;;;4.60;99.90;;;;;;5105784;28;20208;-55
2022/01/05 07:36:39;;;;;;;0.63;0.63;;;4.60;99.90;;;;;;5104328;28;20192;-53
2022/01/05 07:39:24;;;;;;;0.40;0.40;;;4.60;99.90;;;;;;5104296;28;20241;-50
2022/01/05 07:42:08;;;;;;;0.50;0.50;;;4.60;99.90;;;;;;5102687;28;20211;-52
2022/01/05 07:44:53;;;;;;;0.20;0.20;;;4.70;99.90;;;;;;5106967;28;20196;-58
2022/01/05 07:47:38;;;;;;;0.40;0.30;;;4.70;99.90;;;;;;5105629;28;20195;-52
2022/01/05 07:50:22;;;;;;;0.30;0.27;;;4.70;99.90;;;;;;5104999;28;20192;-60
2022/01/05 07:53:07;;;;;;;0.20;0.20;;;4.70;99.90;;;;;;5105391;28;20263;-60
2022/01/05 07:55:53;;;;;;;0.33;0.33;;;4.80;99.90;;;;;;5104872;28;20215;-59
2022/01/05 07:58:38;;;;;;;0.30;0.30;;;4.80;99.90;;;;;;5108323;28;20261;-62
2022/01/05 08:01:23;;;;;;;0.30;0.30;;;4.80;99.90;;;;;;5100979;28;20277;-51
2022/01/05 08:04:07;;;;;;;0.10;0.10;;;4.90;99.90;;;;;;5098741;27;20200;-47
2022/01/05 08:06:52;;;;;;;0.13;0.13;;;4.80;99.90;;;;;;5107042;27;20211;-53
2022/01/05 08:09:36;;;;;;;0.27;0.27;;;4.80;99.90;;;;;;5103031;27;20195;-46
2022/01/05 08:12:20;;;;;;;0.30;0.30;;;4.80;99.90;;;;;;5134657;27;20242;-53
2022/01/05 08:15:05;;;;;;;0.10;0.10;;;4.80;99.90;;;;;;5132683;27;20184;-48
2022/01/05 08:17:49;;;;;;;0.20;0.20;;;4.80;99.90;;;;;;5105532;27;20196;-51
2022/01/05 08:20:34;;;;;;;0.10;0.10;;;4.80;99.90;;;;;;5105549;27;20284;-50
2022/01/05 08:23:19;;;;;;;0.13;0.13;;;4.80;99.90;;;;;;5103755;27;20211;-47
2022/01/05 08:26:06;;;;;;;0.20;0.10;;;4.80;99.90;;;;;;5104280;27;20197;-50
2022/01/05 08:28:50;;;;;;;0.10;0.10;;;4.80;99.90;;;;;;5105995;27;20345;-52
2022/01/05 08:31:34;;;;;;;0.20;0.20;;;4.80;99.90;;;;;;5130716;27;20342;-52
2022/01/05 08:34:19;;;;;;;0.10;0.10;;;4.70;99.90;;;;;;5138370;27;20196;-51
2022/01/05 08:37:03;;;;;;;0.00;0.00;;;4.70;99.90;;;;;;5138555;27;20254;-54
2022/01/05 08:39:50;;;;;;;0.10;0.10;;;4.60;99.90;;;;;;5102684;27;20195;-50
2022/01/05 08:42:34;;;;;;;0.17;0.17;;;4.50;99.90;;;;;;5105317;27;20249;-45
2022/01/05 08:45:20;;;;;;;0.00;0.00;;;4.40;99.90;;;;;;5150835;27;20199;-51
2022/01/05 08:48:05;;;;;;;0.00;0.00;;;4.30;99.90;;;;;;5105936;27;20206;-52
2022/01/05 08:50:51;;;;;;;0.10;0.10;;;4.30;99.90;;;;;;5144573;27;20260;-48
2022/01/05 08:53:35;;;;;;;0.10;0.10;;;4.30;99.90;;;;;;5111847;27;20255;-55
2022/01/05 08:56:23;;;;;;;1.03;0.30;;;4.20;99.90;;;;;;5132797;27;20200;-50
2022/01/05 08:59:07;;;;;;;0.00;0.00;;;4.20;99.90;;;;;;5104679;27;20349;-50
2022/01/05 09:01:52;;;;;;;0.00;0.00;;;4.10;99.90;;;;;;5127985;27;20199;-46
2022/01/05 09:04:37;;;;;;;2.53;0.10;;;4.10;99.90;;;;;;5114125;27;20210;-52
2022/01/05 09:07:23;;;;;;;0.20;0.20;;;4.10;99.90;;;;;;5144437;27;20242;-48
2022/01/05 09:10:07;;;;;;;0.00;0.00;;;4.00;99.90;;;;;;5111171;27;20183;-49
2022/01/05 09:12:53;;;;;;;0.00;0.00;;;4.10;99.90;;;;;;5126899;27;20216;-51
2022/01/05 09:15:38;;;;;;;0.00;0.00;;;4.10;99.90;;;;;;5125567;27;20203;-50
2022/01/05 09:18:24;;;;;;;0.00;0.00;;;4.10;99.90;;;;;;5125166;27;20199;-48
2022/01/05 09:21:08;;;;;;;0.13;0.13;;;4.10;99.90;;;;;;5128108;27;20183;-46
2022/01/05 09:23:53;;;;;;;0.93;0.30;;;4.00;99.90;;;;;;5124740;27;20198;-55
2022/01/05 09:26:37;;;;;;;0.00;0.00;;;3.90;99.90;;;;;;5126694;27;20195;-51
2022/01/05 09:29:23;;;;;;;0.10;0.10;;;3.90;99.90;;;;;;5127063;27;20239;-49
2022/01/05 09:32:09;;;;;;;0.30;0.30;;;3.80;99.90;;;;;;5123933;27;20320;-52
2022/01/05 09:34:53;;;;;;;0.00;0.00;;;3.60;99.90;;;;;;5127497;27;20215;-45
2022/01/05 09:37:50;;;;;;;0.00;0.00;;;3.60;99.90;;;;;;5127093;27;20191;-61
2022/01/05 09:43:53;;;;;;;0.00;0.00;;;3.30;99.90;;;;;;5128078;27;20211;-47
2022/01/05 09:46:58;;;;;;;0.00;0.00;;;3.30;99.90;;;;;;5127174;27;20191;-48
2022/01/05 09:50:10;;;;;;;0.20;0.20;;;3.40;99.90;;;;;;5124256;27;20241;-57
2022/01/05 09:52:55;;;;;;;0.27;0.27;;;3.50;99.90;;;;;;5124988;27;20310;-48
2022/01/05 09:55:41;;;;;;;0.23;0.23;;;3.60;99.90;;;;;;5127621;27;20384;-51
2022/01/05 09:58:28;;;;;;;0.40;0.40;;;3.70;99.90;;;;;;5124188;27;20191;-50
2022/01/05 10:01:13;;;;;;;0.33;0.33;;;3.70;99.90;;;;;;5126433;27;20233;-49
2022/01/05 10:03:59;;;;;;;0.40;0.40;;;3.70;99.90;;;;;;5127499;28;20195;-50
2022/01/05 10:06:44;;;;;;;0.10;0.10;;;3.80;99.90;;;;;;5123957;28;20195;-50
2022/01/05 10:09:30;;;;;;;0.10;0.10;;;3.70;99.90;;;;;;5130984;27;20249;-52
2022/01/05 10:12:14;;;;;;;0.77;0.40;;;3.70;99.90;;;;;;5130507;27;20307;-48
2022/01/05 10:14:59;;;;;;;1.27;0.30;;;3.70;99.90;;;;;;5128022;27;20266;-52
2022/01/05 10:17:43;;;;;;;0.00;0.00;;;3.60;99.90;;;;;;5131650;27;20199;-50
2022/01/05 10:20:28;;;;;;;0.00;0.00;;;3.60;99.90;;;;;;5129190;27;20199;-53
2022/01/05 10:23:12;;;;;;;0.30;0.23;;;3.70;99.90;;;;;;5129920;27;20186;-51
2022/01/05 10:26:19;;;;;;;0.57;0.30;;;3.60;99.90;;;;;;5131214;27;20191;-47
2022/01/05 10:29:16;;;;;;;0.73;0.30;;;3.60;99.90;;;;;;5128711;27;20199;-48
2022/01/05 10:32:07;;;;;;;0.00;0.00;;;3.60;99.90;;;;;;5128719;27;20250;-45
2022/01/05 10:35:16;;;;;;;2.43;0.50;;;3.60;99.90;;;;;;5131074;27;20188;-52
2022/01/05 10:38:13;;;;;;;0.30;0.30;;;3.60;99.90;;;;;;5116189;27;20288;-56
2022/01/05 10:41:13;;;;;;;0.33;0.30;;;3.60;99.90;;;;;;5111846;27;20369;-48
2022/01/05 10:44:11;;;;;;;0.43;0.43;;;3.70;99.90;;;;;;5118836;27;20203;-50
2022/01/05 10:46:57;;;;;;;0.50;0.50;;;3.60;99.90;;;;;;5113410;27;20195;-54
2022/01/05 10:49:42;;;;;;;0.23;0.23;;;3.70;99.90;;;;;;5115478;27;20252;-50
2022/01/05 10:52:32;;;;;;;0.97;0.50;;;3.70;99.90;;;;;;5117700;27;20231;-45
2022/01/05 10:55:18;;;;;;;0.00;0.00;;;3.60;99.90;;;;;;5110833;27;20367;-63
2022/01/05 10:58:08;;;;;;;1.60;0.73;;;3.60;99.90;;;;;;5110958;27;20306;-50
2022/01/05 11:00:54;;;;;;;1.03;0.80;;;3.50;99.90;;;;;;5117869;27;20212;-53
2022/01/05 11:03:42;;;;;;;0.60;0.60;;;3.60;99.90;;;;;;5110614;27;20199;-62
2022/01/05 11:06:27;;;;;;;1.60;0.97;;;3.50;99.90;;;;;;5115155;27;20195;-51
2022/01/05 11:09:11;;;;;;;1.33;0.30;;;3.40;99.90;;;;;;5118545;27;20199;-49
2022/01/05 11:11:56;;;;;;;0.93;0.57;;;3.50;99.90;;;;;;5146613;27;20245;-58
2022/01/05 11:14:41;;;;;;;0.70;0.33;;;3.50;99.90;;;;;;5105108;27;20309;-57
2022/01/05 11:17:25;;;;;;;1.23;0.40;;;3.50;99.90;;;;;;5139675;27;20244;-58
2022/01/05 11:20:10;;;;;;;0.80;0.60;;;3.50;99.90;;;;;;5101883;27;20183;-50
2022/01/05 11:22:56;;;;;;;1.07;0.40;;;3.50;99.90;;;;;;5107795;27;20204;-48
2022/01/05 11:25:44;;;;;;;3.87;1.20;;;3.60;99.90;;;;;;5102095;27;20273;-47
2022/01/05 11:28:30;;;;;;;0.20;0.20;;;3.60;99.90;;;;;;5104723;27;20235;-53
2022/01/05 11:31:15;;;;;;;0.33;0.33;;;3.70;99.90;;;;;;5119436;27;20277;-51
2022/01/05 11:34:01;;;;;;;0.20;0.20;;;3.70;99.90;;;;;;5113584;27;20207;-51
2022/01/05 11:36:45;;;;;;;0.30;0.27;;;3.70;99.90;;;;;;5140309;27;20184;-62
2022/01/05 11:39:33;;;;;;;0.37;0.37;;;3.70;99.90;;;;;;5126493;27;20207;-51
2022/01/05 11:42:25;;;;;;;0.20;0.20;;;3.70;99.90;;;;;;5146702;27;20203;-55
2022/01/05 11:45:09;;;;;;;0.43;0.30;;;3.70;99.90;;;;;;5113685;27;20261;-53
2022/01/05 11:48:26;;;;;;;0.17;0.17;;;3.60;99.90;;;;;;5121912;27;20224;-59
2022/01/05 11:51:10;;;;;;;0.17;0.10;;;3.50;99.90;;;;;;5102256;27;20239;-56
2022/01/05 11:54:12;;;;;;;0.27;0.27;;;3.40;99.90;;;;;;5131579;27;20244;-54
2022/01/05 11:57:09;;;;;;;0.20;0.20;;;3.40;99.90;;;;;;5135390;27;20208;-60
2022/01/05 12:00:15;;;;;;;0.10;0.10;;;3.40;99.90;;;;;;5114815;27;20277;-56
2022/01/05 12:03:01;;;;;;;0.00;0.00;;;3.50;99.90;;;;;;5112695;27;20188;-53
2022/01/05 12:06:07;;;;;;;0.10;0.10;;;3.40;99.90;;;;;;5114163;27;20183;-55
2022/01/05 12:08:55;;;;;;;0.23;0.23;;;3.40;99.90;;;;;;5134437;27;20838;-63
2022/01/05 12:11:42;;;;;;;0.10;0.10;;;3.50;99.90;;;;;;5110287;27;20335;-55
2022/01/05 12:14:26;;;;;;;0.30;0.30;;;3.50;99.90;;;;;;5114573;27;20289;-62
2022/01/05 12:17:11;;;;;;;0.30;0.30;;;3.60;99.90;;;;;;5113457;27;20232;-55
2022/01/05 12:19:55;;;;;;;0.40;0.20;;;3.50;99.90;;;;;;5113923;27;20187;-59
2022/01/05 12:22:40;;;;;;;0.30;0.30;;;3.50;99.90;;;;;;5115898;27;20225;-51
2022/01/05 12:25:25;;;;;;;2.23;0.33;;;3.60;99.90;;;;;;5111028;27;20266;-47
2022/01/05 12:28:25;;;;;;;0.30;0.30;;;3.50;99.90;;;;;;5119468;27;20276;-55
2022/01/05 12:31:11;;;;;;;0.27;0.27;;;3.50;99.90;;;;;;5115150;27;20191;-60
2022/01/05 12:33:58;;;;;;;1.70;0.50;;;3.30;99.90;;;;;;5106827;27;20196;-65
2022/01/05 12:36:42;;;;;;;0.37;0.23;;;3.40;99.90;;;;;;5134555;27;20195;-59
2022/01/05 12:39:49;;;;;;;0.10;0.10;;;3.30;99.90;;;;;;5121573;27;20314;-60
2022/01/05 12:42:33;;;;;;;0.20;0.20;;;3.10;99.90;;;;;;5125109;27;20267;-60
2022/01/05 12:45:55;;;;;;;0.43;0.30;;;3.10;99.90;;;;;;5128674;27;20199;-61
2022/01/05 12:48:43;;;;;;;0.20;0.20;;;3.20;99.90;;;;;;5116802;27;20187;-58
2022/01/05 12:51:51;;;;;;;0.20;0.20;;;3.20;99.90;;;;;;5102927;28;20346;-58
2022/01/05 12:54:42;;;;;;;0.10;0.03;;;3.30;99.90;;;;;;5105966;28;20203;-63
2022/01/05 12:57:29;;;;;;;0.10;0.10;;;3.30;99.90;;;;;;5107764;28;20188;-52
2022/01/05 13:00:14;;;;;;;4.43;0.47;;;3.30;99.90;;;;;;5104314;28;20200;-58
2022/01/05 13:02:59;;;;;;;3.30;0.30;;;3.40;99.90;;;;;;5106747;28;20196;-55
2022/01/05 13:05:44;;;;;;;0.13;0.13;;;3.40;99.90;;;;;;5107022;28;20245;-47
2022/01/05 13:08:32;;;;;;;0.07;0.07;;;3.60;99.90;;;;;;5103810;28;20200;-50
2022/01/05 13:11:39;;;;;;;0.10;0.10;;;3.70;99.90;;;;;;5107414;28;20192;-53
2022/01/05 13:14:33;;;;;;;0.30;0.30;;;3.90;99.90;;;;;;5107066;28;20262;-56
2022/01/05 13:17:28;;;;;;;0.00;0.00;;;4.00;99.90;;;;;;5103653;28;20191;-62
2022/01/05 13:20:17;;;;;;;1.93;0.57;;;3.90;99.90;;;;;;5107131;28;20196;-47
2022/01/05 13:23:02;;;;;;;0.20;0.20;;;3.80;99.90;;;;;;5106947;28;20204;-64
2022/01/05 13:25:46;;;;;;;1.10;0.20;;;3.70;99.90;;;;;;5103903;28;20271;-48
2022/01/05 13:28:37;;;;;;;1.33;0.10;;;3.70;99.90;;;;;;5107397;28;20242;-53
2022/01/05 13:31:23;;;;;;;0.10;0.10;;;3.60;99.90;;;;;;5106091;28;20261;-57
2022/01/05 13:34:07;;;;;;;0.00;0.00;;;3.50;99.90;;;;;;5104420;28;20200;-59
2022/01/05 13:36:53;;;;;;;0.10;0.03;;;3.60;99.90;;;;;;5107301;28;20265;-56
2022/01/05 13:39:46;;;;;;;0.20;0.20;;;3.60;99.90;;;;;;5105261;28;20209;-59
2022/01/05 13:42:36;;;;;;;0.30;0.30;;;3.50;99.90;;;;;;5104036;28;20196;-53
2022/01/05 13:45:24;;;;;;;0.20;0.20;;;3.40;99.90;;;;;;5106950;28;20197;-48
2022/01/05 13:48:14;;;;;;;0.20;0.20;;;3.30;99.90;;;;;;5103779;28;20318;-55
2022/01/05 13:51:01;;;;;;;0.83;0.20;;;3.30;99.90;;;;;;5105317;28;20202;-51
2022/01/05 13:53:47;;;;;;;0.10;0.10;;;3.20;99.90;;;;;;5106979;28;20232;-56
2022/01/05 13:56:40;;;;;;;0.33;0.23;;;3.20;99.90;;;;;;5104204;28;20342;-59
2022/01/05 13:59:24;;;;;;;1.23;0.30;;;3.10;99.90;;;;;;5106159;28;20249;-53
2022/01/05 14:02:09;;;;;;;2.07;0.30;;;3.00;99.90;;;;;;5106486;28;20281;-57
2022/01/05 14:04:56;;;;;;;0.83;0.57;;;3.00;99.90;;;;;;5104166;28;20184;-52
2022/01/05 14:07:43;;;;;;;0.43;0.20;;;3.00;99.90;;;;;;5106564;28;20242;-51
2022/01/05 14:10:33;;;;;;;0.10;0.10;;;3.00;99.90;;;;;;5105526;28;20199;-62
2022/01/05 14:13:24;;;;;;;0.47;0.47;;;3.10;99.90;;;;;;5103198;28;20219;-49
2022/01/05 14:16:14;;;;;;;0.67;0.30;;;3.00;99.90;;;;;;5107283;28;20204;-60
2022/01/05 14:19:03;;;;;;;0.77;0.40;;;3.10;99.90;;;;;;5105521;28;20228;-52
2022/01/05 14:21:48;;;;;;;0.60;0.40;;;3.00;99.90;;;;;;5104140;28;20626;-47
2022/01/05 14:24:37;;;;;;;2.13;0.20;;;2.90;99.90;;;;;;5106959;28;20207;-54
2022/01/05 14:27:21;;;;;;;1.50;0.40;;;2.80;99.90;;;;;;5104709;28;20200;-62
2022/01/05 14:30:11;;;;;;;0.10;0.10;;;2.80;99.90;;;;;;5104243;28;20241;-49
2022/01/05 14:32:55;;;;;;;0.00;0.00;;;2.70;99.90;;;;;;5106644;28;20216;-50
2022/01/05 14:35:39;;;;;;;0.33;0.33;;;2.80;99.90;;;;;;5103557;28;20188;-64
2022/01/05 14:38:24;;;;;;;0.23;0.23;;;2.70;99.90;;;;;;5105644;28;20224;-59
2022/01/05 14:41:12;;;;;;;0.17;0.10;;;2.80;99.90;;;;;;5106095;28;20191;-60
2022/01/05 14:44:23;;;;;;;1.70;0.30;;;2.70;99.90;;;;;;5102794;28;20750;-58